createdAt,value
2023-03-02T00:02:01.949Z,1
2023-03-02T00:06:02.138Z,3
2023-03-02T00:10:02.175Z,3
2023-03-02T00:14:01.449Z,3
2023-03-02T00:18:01.479Z,3
2023-03-02T00:22:01.588Z,3
2023-03-02T00:26:01.717Z,3
2023-03-02T00:30:01.645Z,1
2023-03-02T00:34:02.013Z,1
2023-03-02T00:38:02.030Z,1
2023-03-02T00:42:01.901Z,1
2023-03-02T00:46:01.771Z,1
2023-03-02T00:50:02.032Z,1
2023-03-02T00:54:01.976Z,1
2023-03-02T00:58:01.982Z,1
2023-03-02T01:02:01.849Z,1
2023-03-02T01:06:01.858Z,1
2023-03-02T01:10:01.697Z,1
2023-03-02T01:14:01.945Z,1
2023-03-02T01:18:02.262Z,1
2023-03-02T01:22:01.911Z,1
2023-03-02T01:26:02.019Z,1
2023-03-02T01:30:02.278Z,0
2023-03-02T01:34:01.514Z,0
2023-03-02T01:38:01.476Z,0
2023-03-02T01:42:01.566Z,0
2023-03-02T01:46:01.821Z,0
2023-03-02T01:50:01.921Z,0
2023-03-02T01:54:02.187Z,3
2023-03-02T01:58:02.144Z,3
2023-03-02T02:02:01.524Z,1
2023-03-02T02:06:01.407Z,3
2023-03-02T02:10:01.556Z,3
2023-03-02T02:14:01.565Z,3
2023-03-02T02:18:01.526Z,3
2023-03-02T02:22:01.623Z,3
2023-03-02T02:26:01.403Z,3
2023-03-02T02:30:01.657Z,3
2023-03-02T02:34:01.704Z,3
2023-03-02T02:38:01.714Z,0
2023-03-02T02:42:01.828Z,0
2023-03-02T02:46:02.084Z,0
2023-03-02T02:50:02.293Z,0
2023-03-02T02:54:02.092Z,0
2023-03-02T02:58:02.125Z,0
2023-03-02T03:02:01.852Z,0
2023-03-02T03:06:01.851Z,0
2023-03-02T03:10:02.247Z,0
2023-03-02T03:14:01.939Z,0
2023-03-02T03:18:01.743Z,0
2023-03-02T03:22:01.675Z,0
2023-03-02T03:26:01.395Z,0
2023-03-02T03:30:01.542Z,0
2023-03-02T03:34:01.839Z,0
2023-03-02T03:38:01.966Z,0
2023-03-02T03:42:02.004Z,0
2023-03-02T03:46:01.881Z,0
2023-03-02T03:50:02.012Z,0
2023-03-02T03:54:02.201Z,0
2023-03-02T03:58:02.014Z,0
2023-03-02T04:02:02.178Z,0
2023-03-02T04:06:02.095Z,0
2023-03-02T04:10:02.112Z,0
2023-03-02T04:14:02.235Z,0
2023-03-02T04:18:02.118Z,0
2023-03-02T04:22:02.255Z,0
2023-03-02T04:26:02.151Z,0
2023-03-02T04:30:02.023Z,0
2023-03-02T04:34:02.116Z,0
2023-03-02T04:38:02.024Z,0
2023-03-02T04:42:02.046Z,0
2023-03-02T04:46:02.141Z,0
2023-03-02T04:50:02.205Z,0
2023-03-02T04:54:02.269Z,0
2023-03-02T04:58:01.258Z,0
2023-03-02T05:02:01.424Z,0
2023-03-02T05:06:01.517Z,0
2023-03-02T05:10:01.647Z,0
2023-03-02T05:14:01.621Z,0
2023-03-02T05:18:01.751Z,0
2023-03-02T05:22:01.636Z,0
2023-03-02T05:26:01.896Z,0
2023-03-02T05:30:02.133Z,0
2023-03-02T05:34:02.054Z,0
2023-03-02T05:38:01.293Z,0
2023-03-02T05:42:01.349Z,0
2023-03-02T05:46:01.633Z,0
2023-03-02T05:50:01.751Z,0
2023-03-02T05:54:02.068Z,0
2023-03-02T05:58:02.142Z,0
2023-03-02T06:02:02.005Z,0
2023-03-02T06:06:02.195Z,0
2023-03-02T06:10:02.309Z,0
2023-03-02T06:14:01.532Z,0
2023-03-02T06:18:01.524Z,0
2023-03-02T06:22:01.624Z,0
2023-03-02T06:26:01.584Z,0
2023-03-02T06:30:01.811Z,0
2023-03-02T06:34:01.844Z,0
2023-03-02T06:38:01.942Z,0
2023-03-02T06:42:02.133Z,0
2023-03-02T06:46:01.373Z,0
2023-03-02T06:50:01.369Z,0
2023-03-02T06:54:01.360Z,0
2023-03-02T06:58:02.171Z,0
2023-03-02T07:02:01.827Z,0
2023-03-02T07:06:01.946Z,0
2023-03-02T07:10:01.964Z,0
2023-03-02T07:14:01.871Z,0
2023-03-02T07:18:02.005Z,0
2023-03-02T07:22:01.975Z,0
2023-03-02T07:26:01.957Z,0
2023-03-02T07:30:01.988Z,0
2023-03-02T07:34:02.014Z,0
2023-03-02T07:38:01.848Z,0
2023-03-02T07:42:01.750Z,0
2023-03-02T07:46:01.804Z,0
2023-03-02T07:50:01.717Z,0
2023-03-02T07:54:01.455Z,0
2023-03-02T07:58:01.600Z,0
2023-03-02T08:02:01.366Z,0
2023-03-02T08:06:01.606Z,0
2023-03-02T08:10:01.871Z,0
2023-03-02T08:14:02.141Z,0
2023-03-02T08:18:01.281Z,0
2023-03-02T08:22:01.407Z,0
2023-03-02T08:26:01.711Z,0
2023-03-02T08:30:01.972Z,0
2023-03-02T08:34:02.102Z,0
2023-03-02T08:38:02.247Z,0
2023-03-02T08:42:01.380Z,0
2023-03-02T08:46:01.419Z,0
2023-03-02T08:50:01.451Z,0
2023-03-02T08:54:01.649Z,0
2023-03-02T08:58:02.041Z,0
2023-03-02T09:02:01.904Z,0
2023-03-02T09:06:02.122Z,0
2023-03-02T09:10:02.101Z,0
2023-03-02T09:14:02.144Z,0
2023-03-02T09:18:01.955Z,0
2023-03-02T09:22:01.837Z,0
2023-03-02T09:26:01.988Z,0
2023-03-02T09:30:01.989Z,0
2023-03-02T09:34:04.980Z,0
2023-03-02T09:36:01.756Z,0
2023-03-02T09:40:01.970Z,0
2023-03-02T09:44:01.858Z,0
2023-03-02T09:48:01.901Z,0
2023-03-02T09:52:02.012Z,0
2023-03-02T09:56:01.988Z,0
2023-03-02T10:00:18.700Z,0
2023-03-02T10:04:02.133Z,0
2023-03-02T10:08:02.217Z,0
2023-03-02T10:12:02.255Z,0
2023-03-02T10:16:02.421Z,0
2023-03-02T10:20:02.146Z,0
2023-03-02T10:24:01.946Z,0
2023-03-02T10:28:01.912Z,0
2023-03-02T10:32:01.758Z,0
2023-03-02T10:36:01.470Z,0
2023-03-02T10:40:02.256Z,0
2023-03-02T10:44:02.098Z,0
2023-03-02T10:48:01.751Z,0
2023-03-02T10:52:01.711Z,0
2023-03-02T10:56:01.517Z,0
2023-03-02T11:00:06.840Z,0
2023-03-02T11:04:01.979Z,0
2023-03-02T11:08:01.877Z,0
2023-03-02T11:12:02.001Z,0
2023-03-02T11:16:02.040Z,0
2023-03-02T11:20:01.931Z,0
2023-03-02T11:24:01.963Z,0
2023-03-02T11:28:01.868Z,3
2023-03-02T11:32:02.116Z,3
2023-03-02T11:36:02.165Z,3
2023-03-02T11:40:02.212Z,3
2023-03-02T11:44:02.214Z,3
2023-03-02T11:48:03.438Z,3
2023-03-02T11:52:01.968Z,3
2023-03-02T11:56:01.946Z,3
2023-03-02T12:00:01.965Z,4
2023-03-02T12:04:01.494Z,4
2023-03-02T12:08:01.409Z,4
2023-03-02T12:12:01.455Z,4
2023-03-02T12:16:01.704Z,4
2023-03-02T12:20:01.788Z,2
2023-03-02T12:24:01.664Z,5
2023-03-02T12:28:01.601Z,5
2023-03-02T12:32:01.725Z,4
2023-03-02T12:36:01.468Z,5
2023-03-02T12:40:03.032Z,5
2023-03-02T12:44:01.398Z,4
2023-03-02T12:48:01.631Z,2
2023-03-02T12:52:01.832Z,2
2023-03-02T12:56:01.548Z,2
2023-03-02T13:00:01.467Z,2
2023-03-02T13:04:02.051Z,2
2023-03-02T13:08:02.040Z,4
2023-03-02T13:12:02.221Z,4
2023-03-02T13:16:02.168Z,4
2023-03-02T13:20:01.418Z,4
2023-03-02T13:24:01.526Z,4
2023-03-02T13:28:01.664Z,4
2023-03-02T13:32:01.736Z,2
2023-03-02T13:36:01.735Z,2
2023-03-02T13:40:01.931Z,1
2023-03-02T13:44:02.022Z,1
2023-03-02T13:48:02.222Z,1
2023-03-02T13:52:01.303Z,1
2023-03-02T13:56:01.640Z,1
2023-03-02T14:00:05.076Z,2
2023-03-02T14:04:02.024Z,2
2023-03-02T14:08:02.290Z,4
2023-03-02T14:12:02.124Z,2
2023-03-02T14:16:02.310Z,2
2023-03-02T14:20:01.334Z,2
2023-03-02T14:24:01.538Z,2
2023-03-02T14:28:01.692Z,2
2023-03-02T14:32:01.914Z,2
2023-03-02T14:36:02.176Z,2
2023-03-02T14:40:02.094Z,2
2023-03-02T14:44:02.114Z,2
2023-03-02T14:48:02.091Z,2
2023-03-02T14:52:02.121Z,5
2023-03-02T14:56:01.986Z,5
2023-03-02T15:00:08.497Z,5
2023-03-02T15:04:01.601Z,4
2023-03-02T15:08:01.675Z,2
2023-03-02T15:12:01.717Z,2
2023-03-02T15:16:02.027Z,2
2023-03-02T15:20:02.096Z,2
2023-03-02T15:24:02.025Z,2
2023-03-02T15:28:01.917Z,4
2023-03-02T15:32:02.362Z,2
2023-03-02T15:36:02.154Z,2
2023-03-02T15:40:02.336Z,2
2023-03-02T15:44:02.244Z,2
2023-03-02T15:48:02.347Z,2
2023-03-02T15:52:01.409Z,2
2023-03-02T15:56:01.479Z,4
2023-03-02T16:00:05.426Z,2
2023-03-02T16:04:01.862Z,2
2023-03-02T16:08:01.875Z,2
2023-03-02T16:12:02.013Z,4
2023-03-02T16:16:02.028Z,5
2023-03-02T16:20:01.886Z,2
2023-03-02T16:24:01.800Z,2
2023-03-02T16:28:01.972Z,2
2023-03-02T16:32:02.022Z,4
2023-03-02T16:36:01.973Z,4
2023-03-02T16:40:02.201Z,1
2023-03-02T16:44:01.997Z,4
2023-03-02T16:48:01.735Z,4
2023-03-02T16:52:01.477Z,7
2023-03-02T16:56:01.526Z,4
2023-03-02T17:00:05.040Z,4
2023-03-02T17:04:03.701Z,1
2023-03-02T17:08:02.028Z,2
2023-03-02T17:12:01.931Z,2
2023-03-02T17:16:01.744Z,4
2023-03-02T17:20:01.608Z,4
2023-03-02T17:24:01.710Z,4
2023-03-02T17:28:01.762Z,2
2023-03-02T17:32:01.572Z,4
2023-03-02T17:36:01.592Z,4
2023-03-02T17:40:01.482Z,2
2023-03-02T17:44:01.364Z,1
2023-03-02T17:48:01.468Z,1
2023-03-02T17:52:01.402Z,4
2023-03-02T17:56:02.079Z,4
2023-03-02T18:00:05.910Z,4
2023-03-02T18:04:02.136Z,2
2023-03-02T18:08:02.035Z,3
2023-03-02T18:12:01.897Z,3
2023-03-02T18:16:01.791Z,3
2023-03-02T18:20:01.855Z,3
2023-03-02T18:24:01.735Z,3
2023-03-02T18:28:01.669Z,3
2023-03-02T18:32:01.763Z,4
2023-03-02T18:36:01.619Z,4
2023-03-02T18:40:01.850Z,3
2023-03-02T18:44:01.549Z,3
2023-03-02T18:48:01.573Z,4
2023-03-02T18:52:01.647Z,4
2023-03-02T18:56:01.856Z,4
2023-03-02T19:00:06.309Z,4
2023-03-02T19:04:01.321Z,3
2023-03-02T19:08:01.645Z,3
2023-03-02T19:12:01.666Z,3
2023-03-02T19:16:01.718Z,3
2023-03-02T19:20:01.909Z,3
2023-03-02T19:24:01.972Z,4
2023-03-02T19:28:02.337Z,3
2023-03-02T19:32:02.383Z,1
2023-03-02T19:36:01.473Z,4
2023-03-02T19:40:01.694Z,3
2023-03-02T19:44:01.893Z,3
2023-03-02T19:48:01.941Z,3
2023-03-02T19:52:02.040Z,4
2023-03-02T19:56:02.280Z,4
2023-03-02T20:00:05.603Z,3
2023-03-02T20:04:01.997Z,3
2023-03-02T20:08:01.939Z,3
2023-03-02T20:12:02.035Z,3
2023-03-02T20:16:01.958Z,3
2023-03-02T20:20:02.208Z,6
2023-03-02T20:24:02.126Z,6
2023-03-02T20:28:01.325Z,3
2023-03-02T20:32:01.590Z,4
2023-03-02T20:36:01.700Z,4
2023-03-02T20:40:02.254Z,4
2023-03-02T20:44:02.042Z,4
2023-03-02T20:48:02.193Z,4
2023-03-02T20:52:01.347Z,4
2023-03-02T20:56:01.431Z,4
2023-03-02T21:00:06.967Z,1
2023-03-02T21:04:02.221Z,1
2023-03-02T21:08:02.233Z,1
2023-03-02T21:12:02.162Z,1
2023-03-02T21:16:02.313Z,1
2023-03-02T21:20:01.551Z,1
2023-03-02T21:24:01.465Z,6
2023-03-02T21:28:01.446Z,1
2023-03-02T21:32:01.596Z,1
2023-03-02T21:36:01.677Z,1
2023-03-02T21:40:01.818Z,3
2023-03-02T21:44:01.993Z,3
2023-03-02T21:48:02.003Z,1
2023-03-02T21:52:01.985Z,3
2023-03-02T21:56:01.746Z,3
2023-03-02T22:00:08.239Z,4
2023-03-02T22:04:01.332Z,4
2023-03-02T22:08:01.998Z,3
2023-03-02T22:12:01.829Z,1
2023-03-02T22:16:01.455Z,1
2023-03-02T22:20:02.317Z,3
2023-03-02T22:24:01.437Z,3
2023-03-02T22:28:01.531Z,3
2023-03-02T22:32:01.701Z,3
2023-03-02T22:36:01.615Z,1
2023-03-02T22:40:01.664Z,3
2023-03-02T22:44:01.615Z,3
2023-03-02T22:48:01.413Z,3
2023-03-02T22:52:01.399Z,3
2023-03-02T22:56:01.471Z,3
2023-03-02T23:00:01.790Z,3
2023-03-02T23:04:01.500Z,1
2023-03-02T23:08:01.673Z,1
2023-03-02T23:12:01.561Z,3
2023-03-02T23:16:01.601Z,1
2023-03-02T23:20:01.759Z,1
2023-03-02T23:24:01.884Z,3
2023-03-02T23:28:01.910Z,3
2023-03-02T23:32:02.265Z,3
2023-03-02T23:36:02.033Z,3
2023-03-02T23:40:02.292Z,3
2023-03-02T23:44:01.440Z,3
2023-03-02T23:48:01.762Z,3
2023-03-02T23:52:01.951Z,3
2023-03-02T23:56:01.689Z,3
